createdAt,value
2022-11-29T00:01:47.338Z,13.30
2022-11-29T00:04:32.609Z,11.93
2022-11-29T00:07:18.318Z,12.23
2022-11-29T00:10:04.263Z,12.07
2022-11-29T00:12:50.082Z,12.65
2022-11-29T00:15:37.515Z,12.23
2022-11-29T00:18:22.917Z,11.85
2022-11-29T00:21:09.198Z,11.63
2022-11-29T00:23:55.314Z,11.65
2022-11-29T00:26:41.008Z,12.48
2022-11-29T00:29:28.056Z,12.10
2022-11-29T00:32:13.744Z,12.93
2022-11-29T00:34:59.728Z,13.25
2022-11-29T00:37:45.993Z,13.85
2022-11-29T00:40:31.186Z,12.85
2022-11-29T00:43:16.498Z,12.60
2022-11-29T00:46:03.229Z,11.77
2022-11-29T00:48:48.701Z,13.13
2022-11-29T00:51:34.061Z,14.48
2022-11-29T00:54:19.762Z,11.70
2022-11-29T00:57:05.236Z,13.27
2022-11-29T00:59:50.457Z,12.98
2022-11-29T01:02:36.001Z,12.48
2022-11-29T01:05:21.215Z,11.30
2022-11-29T01:08:06.917Z,10.73
2022-11-29T01:11:02.545Z,10.70
2022-11-29T01:13:49.244Z,11.25
2022-11-29T01:16:35.490Z,10.70
2022-11-29T01:19:20.765Z,11.68
2022-11-29T01:22:06.065Z,11.25
2022-11-29T01:24:51.477Z,12.05
2022-11-29T01:27:36.940Z,12.63
2022-11-29T01:30:22.308Z,11.65
2022-11-29T01:33:07.518Z,11.93
2022-11-29T01:35:54.820Z,11.40
2022-11-29T01:38:40.611Z,12.65
2022-11-29T01:41:29.311Z,12.55
2022-11-29T01:44:14.649Z,11.88
2022-11-29T01:46:59.896Z,12.48
2022-11-29T01:49:49.073Z,12.30
2022-11-29T01:52:34.809Z,11.65
2022-11-29T01:55:20.555Z,11.70
2022-11-29T01:58:07.972Z,11.88
2022-11-29T02:00:53.330Z,11.20
2022-11-29T02:03:38.697Z,10.63
2022-11-29T02:06:24.902Z,10.90
2022-11-29T02:09:22.183Z,9.10
2022-11-29T02:12:23.115Z,9.68
2022-11-29T02:15:39.464Z,8.82
2022-11-29T02:18:51.380Z,8.07
2022-11-29T02:21:52.258Z,9.02
2022-11-29T02:24:59.269Z,8.52
2022-11-29T02:28:10.863Z,8.73
2022-11-29T02:31:33.628Z,7.57
2022-11-29T02:34:37.927Z,7.38
2022-11-29T02:37:42.120Z,7.55
2022-11-29T02:40:46.566Z,6.90
2022-11-29T02:43:44.158Z,7.25
2022-11-29T02:46:35.525Z,7.90
2022-11-29T02:49:45.055Z,5.93
2022-11-29T02:52:52.149Z,6.57
2022-11-29T02:55:46.922Z,5.90
2022-11-29T02:58:54.473Z,5.80
2022-11-29T03:02:15.205Z,6.05
2022-11-29T03:05:20.220Z,5.38
2022-11-29T03:08:20.788Z,5.55
2022-11-29T03:11:44.562Z,4.90
2022-11-29T03:15:03.820Z,5.28
2022-11-29T03:18:08.172Z,4.53
2022-11-29T03:21:24.742Z,3.63
2022-11-29T03:24:21.181Z,3.58
2022-11-29T03:27:30.260Z,4.15
2022-11-29T03:30:19.181Z,5.10
2022-11-29T03:33:08.522Z,3.85
2022-11-29T03:36:39.005Z,3.65
2022-11-29T03:39:42.771Z,3.88
2022-11-29T03:42:47.979Z,4.05
2022-11-29T03:46:00.908Z,3.45
2022-11-29T03:48:52.423Z,4.53
2022-11-29T03:51:55.300Z,3.40
2022-11-29T03:55:03.489Z,3.72
2022-11-29T03:58:20.780Z,3.45
2022-11-29T04:01:21.641Z,3.38
2022-11-29T04:04:38.238Z,4.47
2022-11-29T04:07:48.133Z,4.40
2022-11-29T04:10:58.461Z,3.65
2022-11-29T04:14:28.429Z,2.67
2022-11-29T04:17:41.194Z,3.40
2022-11-29T04:20:58.610Z,4.57
2022-11-29T04:24:22.571Z,3.20
2022-11-29T04:27:13.804Z,4.13
2022-11-29T04:30:24.192Z,4.13
2022-11-29T04:33:34.665Z,3.03
2022-11-29T04:36:20.294Z,3.75
2022-11-29T04:39:35.156Z,2.70
2022-11-29T04:42:37.761Z,3.92
2022-11-29T04:45:44.408Z,3.67
2022-11-29T04:49:02.081Z,3.92
2022-11-29T04:52:05.913Z,3.25
2022-11-29T04:55:19.422Z,3.53
2022-11-29T04:58:12.366Z,2.70
2022-11-29T05:01:07.111Z,3.00
2022-11-29T05:04:01.586Z,3.35
2022-11-29T05:07:13.658Z,2.80
2022-11-29T05:09:59.729Z,3.45
2022-11-29T05:13:04.068Z,3.45
2022-11-29T05:16:00.420Z,3.40
2022-11-29T05:19:13.616Z,2.88
2022-11-29T05:22:13.290Z,3.22
2022-11-29T05:25:02.669Z,2.97
2022-11-29T05:28:09.817Z,3.15
2022-11-29T05:31:14.669Z,2.50
2022-11-29T05:34:34.564Z,3.08
2022-11-29T05:37:32.739Z,3.20
2022-11-29T05:40:28.318Z,2.75
2022-11-29T05:43:47.122Z,2.95
2022-11-29T05:46:50.629Z,2.63
2022-11-29T05:49:58.055Z,3.05
2022-11-29T05:53:04.957Z,2.05
2022-11-29T05:56:18.004Z,3.20
2022-11-29T05:59:18.381Z,2.72
2022-11-29T06:02:25.243Z,3.08
2022-11-29T06:05:32.416Z,2.40
2022-11-29T06:08:41.178Z,3.40
2022-11-29T06:11:38.142Z,2.22
2022-11-29T06:14:34.349Z,2.67
2022-11-29T06:17:37.287Z,2.10
2022-11-29T06:20:36.085Z,2.45
2022-11-29T06:23:41.432Z,2.67
2022-11-29T06:26:45.110Z,3.38
2022-11-29T06:29:36.893Z,3.28
2022-11-29T06:32:44.625Z,2.95
2022-11-29T06:35:39.330Z,2.72
2022-11-29T06:38:30.476Z,3.13
2022-11-29T06:41:20.921Z,2.50
2022-11-29T06:44:07.115Z,2.90
2022-11-29T06:47:06.876Z,2.40
2022-11-29T06:49:58.277Z,3.47
2022-11-29T06:53:20.925Z,2.92
2022-11-29T06:56:20.978Z,2.85
2022-11-29T06:59:18.681Z,2.45
2022-11-29T07:02:25.854Z,2.55
2022-11-29T07:05:21.075Z,2.83
2022-11-29T07:08:14.046Z,2.65
2022-11-29T07:11:00.633Z,2.42
2022-11-29T07:13:46.193Z,2.42
2022-11-29T07:16:43.683Z,3.00
2022-11-29T07:19:46.006Z,2.75
2022-11-29T07:22:37.788Z,3.22
2022-11-29T07:25:58.484Z,3.50
2022-11-29T07:29:07.110Z,2.80
2022-11-29T07:31:52.640Z,2.83
2022-11-29T07:35:00.572Z,2.67
2022-11-29T07:38:03.517Z,3.00
2022-11-29T07:41:06.794Z,3.03
2022-11-29T07:44:04.780Z,2.55
2022-11-29T07:46:50.094Z,3.38
2022-11-29T07:49:35.401Z,3.60
2022-11-29T07:52:20.773Z,3.40
2022-11-29T07:55:06.593Z,3.17
2022-11-29T07:57:52.663Z,3.65
2022-11-29T08:00:38.745Z,3.75
2022-11-29T08:03:24.039Z,3.88
2022-11-29T08:06:09.476Z,4.65
2022-11-29T08:08:57.943Z,5.18
2022-11-29T08:11:44.792Z,4.35
2022-11-29T08:14:33.524Z,5.22
2022-11-29T08:17:19.181Z,5.53
2022-11-29T08:20:06.027Z,4.63
2022-11-29T08:22:59.617Z,4.07
2022-11-29T08:25:46.037Z,3.85
2022-11-29T08:28:31.241Z,3.90
2022-11-29T08:31:16.696Z,5.38
2022-11-29T08:34:02.024Z,5.53
2022-11-29T08:36:47.702Z,4.25
2022-11-29T08:39:33.168Z,4.47
2022-11-29T08:42:18.512Z,4.50
2022-11-29T08:45:04.473Z,4.38
2022-11-29T08:47:49.713Z,4.25
2022-11-29T08:50:35.306Z,4.07
2022-11-29T08:53:39.247Z,3.97
2022-11-29T08:57:10.017Z,4.07
2022-11-29T08:59:30.000Z,3.58
2022-11-29T09:02:15.498Z,3.95
2022-11-29T09:05:00.775Z,3.92
2022-11-29T09:07:47.043Z,3.38
2022-11-29T09:10:32.750Z,3.55
2022-11-29T09:13:18.284Z,3.72
2022-11-29T09:16:09.033Z,4.57
2022-11-29T09:18:56.102Z,5.15
2022-11-29T09:21:41.421Z,6.00
2022-11-29T09:24:26.720Z,6.32
2022-11-29T09:27:12.333Z,6.82
2022-11-29T09:29:57.545Z,7.50
2022-11-29T09:32:43.182Z,6.95
2022-11-29T09:35:31.026Z,6.63
2022-11-29T09:38:16.513Z,5.80
2022-11-29T09:41:41.965Z,6.63
2022-11-29T09:44:48.758Z,5.90
2022-11-29T09:47:53.220Z,5.15
2022-11-29T09:50:44.990Z,4.75
2022-11-29T09:53:46.255Z,4.70
2022-11-29T09:56:40.826Z,5.05
2022-11-29T09:59:32.542Z,4.72
2022-11-29T10:02:32.213Z,5.32
2022-11-29T10:05:46.972Z,5.18
2022-11-29T10:08:58.954Z,4.30
2022-11-29T10:11:56.704Z,4.97
2022-11-29T10:15:08.925Z,4.28
2022-11-29T10:18:10.429Z,4.20
2022-11-29T10:20:58.675Z,9.20
2022-11-29T10:23:48.703Z,6.00
2022-11-29T10:26:35.443Z,4.60
2022-11-29T10:29:22.937Z,4.18
2022-11-29T10:32:16.108Z,4.15
2022-11-29T10:35:02.379Z,3.92
2022-11-29T10:38:14.646Z,3.78
2022-11-29T10:41:04.507Z,3.63
2022-11-29T10:43:52.136Z,3.15
2022-11-29T10:46:38.734Z,3.47
2022-11-29T10:49:28.135Z,3.92
2022-11-29T10:52:20.858Z,4.15
2022-11-29T10:55:12.617Z,3.67
2022-11-29T10:58:11.757Z,4.40
2022-11-29T11:01:02.229Z,6.93
2022-11-29T11:03:53.456Z,5.72
2022-11-29T11:06:56.321Z,5.22
2022-11-29T11:09:51.082Z,7.55
2022-11-29T11:12:37.170Z,12.63
2022-11-29T11:15:32.939Z,11.02
2022-11-29T11:18:23.859Z,12.60
2022-11-29T11:21:12.147Z,13.10
2022-11-29T11:24:02.059Z,12.18
2022-11-29T11:26:47.497Z,10.13
2022-11-29T11:29:52.800Z,8.45
2022-11-29T11:32:38.351Z,6.75
2022-11-29T11:35:24.451Z,4.50
2022-11-29T11:38:17.746Z,4.13
2022-11-29T11:41:23.037Z,3.78
2022-11-29T11:44:46.439Z,4.15
2022-11-29T11:47:33.618Z,3.08
2022-11-29T11:50:31.152Z,3.05
2022-11-29T11:53:27.642Z,3.60
2022-11-29T11:56:14.523Z,3.10
2022-11-29T11:59:00.314Z,2.55
2022-11-29T12:01:45.984Z,1.92
2022-11-29T12:04:37.377Z,2.05
2022-11-29T12:08:06.001Z,2.70
2022-11-29T12:10:41.571Z,3.20
2022-11-29T12:13:31.511Z,4.00
2022-11-29T12:16:27.547Z,4.93
2022-11-29T12:19:31.608Z,4.95
2022-11-29T12:22:25.200Z,5.93
2022-11-29T12:25:19.569Z,6.45
2022-11-29T12:28:14.654Z,8.57
2022-11-29T12:31:35.383Z,12.38
2022-11-29T12:34:30.057Z,14.50
2022-11-29T12:37:24.449Z,13.30
2022-11-29T12:40:33.922Z,16.33
2022-11-29T12:43:41.473Z,10.02
2022-11-29T12:46:29.602Z,5.75
2022-11-29T12:49:23.441Z,8.40
2022-11-29T12:52:20.331Z,5.80
2022-11-29T12:55:23.332Z,4.00
2022-11-29T12:58:19.179Z,3.85
2022-11-29T13:01:15.866Z,4.35
2022-11-29T13:04:27.753Z,3.47
2022-11-29T13:07:38.154Z,2.30
2022-11-29T13:10:42.677Z,1.50
2022-11-29T13:13:27.967Z,1.33
2022-11-29T13:16:31.258Z,1.23
2022-11-29T13:19:53.529Z,1.17
2022-11-29T13:22:54.870Z,1.45
2022-11-29T13:25:54.266Z,1.42
2022-11-29T13:28:42.982Z,1.30
2022-11-29T13:31:29.127Z,2.30
2022-11-29T13:34:40.895Z,5.32
2022-11-29T13:37:50.590Z,5.03
2022-11-29T13:43:42.287Z,4.68
2022-11-29T13:46:36.323Z,3.35
2022-11-29T13:49:57.126Z,2.10
2022-11-29T13:52:48.145Z,1.20
2022-11-29T13:55:34.538Z,1.35
2022-11-29T13:58:32.943Z,1.45
2022-11-29T14:01:18.396Z,2.85
2022-11-29T14:04:16.770Z,1.13
2022-11-29T14:07:04.165Z,1.23
2022-11-29T14:09:51.845Z,1.17
2022-11-29T14:12:48.203Z,1.02
2022-11-29T14:15:33.901Z,1.23
2022-11-29T14:18:37.673Z,1.10
2022-11-29T14:21:23.148Z,1.33
2022-11-29T14:24:35.366Z,1.30
2022-11-29T14:27:20.889Z,1.33
2022-11-29T14:30:40.845Z,6.07
2022-11-29T14:33:50.771Z,5.00
2022-11-29T14:36:42.459Z,1.92
2022-11-29T14:39:55.151Z,1.42
2022-11-29T14:42:49.955Z,1.95
2022-11-29T14:45:35.709Z,3.88
2022-11-29T14:48:28.239Z,2.60
2022-11-29T14:51:16.804Z,2.53
2022-11-29T14:54:16.108Z,3.03
2022-11-29T14:57:39.437Z,7.78
2022-11-29T15:00:28.166Z,3.38
2022-11-29T15:03:16.867Z,4.30
2022-11-29T15:06:45.143Z,2.83
2022-11-29T15:09:34.884Z,2.03
2022-11-29T15:12:27.803Z,3.50
2022-11-29T15:15:13.354Z,3.40
2022-11-29T15:18:10.951Z,3.65
2022-11-29T15:20:59.754Z,6.82
2022-11-29T15:23:45.135Z,5.13
2022-11-29T15:26:32.956Z,2.67
2022-11-29T15:29:19.947Z,4.75
2022-11-29T15:32:06.554Z,19.75
2022-11-29T15:34:54.894Z,41.22
2022-11-29T15:37:45.604Z,11.57
2022-11-29T15:40:35.359Z,20.50
2022-11-29T15:43:30.361Z,13.38
2022-11-29T15:46:21.608Z,11.68
2022-11-29T15:49:24.806Z,11.10
2022-11-29T15:52:20.620Z,9.00
2022-11-29T15:55:12.800Z,6.95
2022-11-29T15:58:06.999Z,6.88
2022-11-29T16:00:55.296Z,5.10
2022-11-29T16:03:45.599Z,5.03
2022-11-29T16:06:42.609Z,3.80
2022-11-29T16:09:42.110Z,3.47
2022-11-29T16:12:27.795Z,3.20
2022-11-29T16:15:26.805Z,3.15
2022-11-29T16:18:20.875Z,3.55
2022-11-29T16:21:08.146Z,3.25
2022-11-29T16:23:54.451Z,2.40
2022-11-29T16:26:44.150Z,2.72
2022-11-29T16:29:31.144Z,3.83
2022-11-29T16:32:32.494Z,4.40
2022-11-29T16:35:24.716Z,5.75
2022-11-29T16:38:19.983Z,6.18
2022-11-29T16:41:08.953Z,6.72
2022-11-29T16:43:55.576Z,6.50
2022-11-29T16:46:41.019Z,5.90
2022-11-29T16:49:35.705Z,5.78
2022-11-29T16:52:27.460Z,6.50
2022-11-29T16:55:13.216Z,8.90
2022-11-29T16:57:58.991Z,6.45
2022-11-29T17:00:44.300Z,4.57
2022-11-29T17:03:29.642Z,3.85
2022-11-29T17:06:16.849Z,5.28
2022-11-29T17:09:02.136Z,12.13
2022-11-29T17:11:47.670Z,13.13
2022-11-29T17:14:33.574Z,12.27
2022-11-29T17:17:19.730Z,8.18
2022-11-29T17:20:07.552Z,10.55
2022-11-29T17:22:53.242Z,10.93
2022-11-29T17:25:38.779Z,17.23
2022-11-29T17:28:24.554Z,18.25
2022-11-29T17:31:24.117Z,28.23
2022-11-29T17:34:10.329Z,32.08
2022-11-29T17:36:55.953Z,28.67
2022-11-29T17:39:44.852Z,23.40
2022-11-29T17:42:30.604Z,36.60
2022-11-29T17:45:16.155Z,17.77
2022-11-29T17:48:02.051Z,23.20
2022-11-29T17:50:47.347Z,15.55
2022-11-29T17:53:33.568Z,20.95
2022-11-29T17:56:21.904Z,17.08
2022-11-29T17:59:07.639Z,11.32
2022-11-29T18:01:53.062Z,13.25
2022-11-29T18:04:42.049Z,11.57
2022-11-29T18:07:27.411Z,11.07
2022-11-29T18:10:12.809Z,10.15
2022-11-29T18:12:58.088Z,8.57
2022-11-29T18:15:43.572Z,11.85
2022-11-29T18:18:29.243Z,9.10
2022-11-29T18:21:14.733Z,9.85
2022-11-29T18:24:02.176Z,9.43
2022-11-29T18:26:48.109Z,7.97
2022-11-29T18:29:38.929Z,8.93
2022-11-29T18:32:25.068Z,10.67
2022-11-29T18:35:12.013Z,15.80
2022-11-29T18:38:14.904Z,16.73
2022-11-29T18:41:07.311Z,21.58
2022-11-29T18:43:58.972Z,25.13
2022-11-29T18:46:45.473Z,23.40
2022-11-29T18:49:31.121Z,28.60
2022-11-29T18:52:16.383Z,28.67
2022-11-29T18:55:01.828Z,32.47
2022-11-29T18:57:51.389Z,32.63
2022-11-29T19:00:37.050Z,33.03
2022-11-29T19:03:22.462Z,32.75
2022-11-29T19:06:11.054Z,33.88
2022-11-29T19:08:59.518Z,33.45
2022-11-29T19:11:45.156Z,33.97
2022-11-29T19:14:32.437Z,31.42
2022-11-29T19:17:18.845Z,28.20
2022-11-29T19:20:04.280Z,28.05
2022-11-29T19:22:49.974Z,27.60
2022-11-29T19:25:35.365Z,23.67
2022-11-29T19:28:20.955Z,22.50
2022-11-29T19:31:08.179Z,25.38
2022-11-29T19:33:55.396Z,21.75
2022-11-29T19:36:44.991Z,23.20
2022-11-29T19:39:31.383Z,24.05
2022-11-29T19:42:16.844Z,21.13
2022-11-29T19:45:16.449Z,21.20
2022-11-29T19:48:03.036Z,21.98
2022-11-29T19:50:48.982Z,23.15
2022-11-29T19:53:35.121Z,24.45
2022-11-29T19:56:20.927Z,21.13
2022-11-29T19:59:08.117Z,20.27
2022-11-29T20:01:53.681Z,20.70
2022-11-29T20:04:38.985Z,20.15
2022-11-29T20:07:24.428Z,20.85
2022-11-29T20:10:10.042Z,20.67
2022-11-29T20:12:55.542Z,21.75
2022-11-29T20:15:40.863Z,21.08
2022-11-29T20:18:30.807Z,21.67
2022-11-29T20:21:35.637Z,22.42
2022-11-29T20:24:21.103Z,19.92
2022-11-29T20:27:06.379Z,20.05
2022-11-29T20:29:51.556Z,20.08
2022-11-29T20:32:37.339Z,18.67
2022-11-29T20:35:23.455Z,16.17
2022-11-29T20:38:31.043Z,18.70
2022-11-29T20:41:38.719Z,17.15
2022-11-29T20:44:44.894Z,16.20
2022-11-29T20:47:56.788Z,17.00
2022-11-29T20:50:45.027Z,16.38
2022-11-29T20:53:30.564Z,18.20
2022-11-29T20:56:15.967Z,15.95
2022-11-29T20:59:01.342Z,16.85
2022-11-29T21:01:46.864Z,18.88
2022-11-29T21:04:32.233Z,19.35
2022-11-29T21:07:17.842Z,19.23
2022-11-29T21:10:04.721Z,18.13
2022-11-29T21:12:50.475Z,17.05
2022-11-29T21:15:36.498Z,15.70
2022-11-29T21:18:28.136Z,14.73
2022-11-29T21:21:25.401Z,15.70
2022-11-29T21:24:30.501Z,15.02
2022-11-29T21:27:21.152Z,14.88
2022-11-29T21:30:14.068Z,28.23
2022-11-29T21:32:59.725Z,25.27
2022-11-29T21:35:45.359Z,43.90
2022-11-29T21:38:30.877Z,25.45
2022-11-29T21:41:16.521Z,26.45
2022-11-29T21:44:07.073Z,26.73
2022-11-29T21:46:53.325Z,21.70
2022-11-29T21:49:39.397Z,25.08
2022-11-29T21:52:24.706Z,23.60
2022-11-29T21:55:10.523Z,22.75
2022-11-29T21:57:55.928Z,22.05
2022-11-29T22:00:43.173Z,22.08
2022-11-29T22:03:28.727Z,21.85
2022-11-29T22:06:18.423Z,20.30
2022-11-29T22:09:05.135Z,21.33
2022-11-29T22:11:50.850Z,21.20
2022-11-29T22:14:36.377Z,19.83
2022-11-29T22:17:21.517Z,20.67
2022-11-29T22:20:07.651Z,21.85
2022-11-29T22:22:58.430Z,21.92
2022-11-29T22:25:44.153Z,21.73
2022-11-29T22:28:29.535Z,20.63
2022-11-29T22:31:15.082Z,20.98
2022-11-29T22:34:00.836Z,21.58
2022-11-29T22:36:46.271Z,19.98
2022-11-29T22:39:31.665Z,20.27
2022-11-29T22:42:16.974Z,21.02
2022-11-29T22:45:04.171Z,21.95
2022-11-29T22:47:49.632Z,20.10
2022-11-29T22:50:35.002Z,18.35
2022-11-29T22:53:20.240Z,17.27
2022-11-29T22:56:08.421Z,18.80
2022-11-29T22:58:54.663Z,18.58
2022-11-29T23:01:41.808Z,18.75
2022-11-29T23:04:27.276Z,17.92
2022-11-29T23:07:12.904Z,17.85
2022-11-29T23:09:58.293Z,16.85
2022-11-29T23:12:44.639Z,16.60
2022-11-29T23:15:29.893Z,16.63
2022-11-29T23:18:15.347Z,14.68
2022-11-29T23:21:06.556Z,15.13
2022-11-29T23:23:56.388Z,14.60
2022-11-29T23:26:45.781Z,13.93
2022-11-29T23:29:31.075Z,13.93
2022-11-29T23:32:16.469Z,13.07
2022-11-29T23:35:01.849Z,13.23
2022-11-29T23:37:47.245Z,13.55
2022-11-29T23:40:33.436Z,13.68
2022-11-29T23:43:18.913Z,12.95
2022-11-29T23:46:17.743Z,13.48
2022-11-29T23:49:03.465Z,13.07
2022-11-29T23:51:49.186Z,11.32
2022-11-29T23:54:34.579Z,12.25
2022-11-29T23:57:20.053Z,10.63
